This is the latest recevied weather packets stored in our database for station/object DL6MM-4. If no packets are shown the sender has not sent any weather packets the latest 10 day(s).
| Time | Temp. | Humidity | Pressure | Rain* | Wind** | Luminosity | Snow |
|---|---|---|---|---|---|---|---|
| 1777440554 | 7.22° C | 72% | 1025.3 hPa | 0 mm | - | - | - |
| 1777439954 | 6.11° C | 74% | 1025.2 hPa | 0 mm | - | - | - |
| 1777439354 | 5° C | 81% | 1025.2 hPa | 0 mm | - | - | - |
| 1777438754 | 3.33° C | 84% | 1025 hPa | 0 mm | - | - | - |
| 1777438154 | 1.67° C | 84% | 1024.9 hPa | 0 mm | - | - | - |
| 1777437554 | 1.67° C | 84% | 1024.9 hPa | 0 mm | - | - | - |
| 1777436954 | 1.11° C | 84% | 1024.8 hPa | 0 mm | - | - | - |
| 1777436354 | 1.67° C | 84% | 1024.9 hPa | 0 mm | - | - | - |
| 1777435754 | 1.11° C | 83% | 1024.7 hPa | 0 mm | - | - | - |
| 1777435154 | 1.67° C | 83% | 1024.7 hPa | 0 mm | - | - | - |
| 1777434554 | 1.67° C | 82% | 1024.8 hPa | 0 mm | - | - | - |
| 1777433954 | 1.67° C | 80% | 1024.8 hPa | 0 mm | - | - | - |
| 1777433354 | 2.22° C | 78% | 1024.5 hPa | 0 mm | - | - | - |
| 1777432754 | 2.22° C | 75% | 1024.5 hPa | 0 mm | - | - | - |
| 1777432154 | 2.78° C | 74% | 1024.5 hPa | 0 mm | - | - | - |
| 1777431554 | 2.78° C | 74% | 1024.5 hPa | 0 mm | - | - | - |
| 1777430954 | 3.33° C | 73% | 1024.5 hPa | 0 mm | - | - | - |
| 1777430354 | 3.33° C | 73% | 1024.5 hPa | 0 mm | - | - | - |
| 1777429754 | 3.89° C | 70% | 1024.5 hPa | 0 mm | - | - | - |
| 1777429154 | 5° C | 67% | 1024.5 hPa | 0 mm | - | - | - |
| 1777428554 | 5.56° C | 64% | 1024.5 hPa | 0 mm | - | - | - |
| 1777427954 | 5.56° C | 66% | 1024.5 hPa | 0 mm | - | - | - |
| 1777427354 | 5.56° C | 66% | 1024.5 hPa | 0 mm | - | - | - |
| 1777426754 | 5° C | 69% | 1024.5 hPa | 0 mm | - | - | - |
| 1777426154 | 4.44° C | 70% | 1024.5 hPa | 0 mm | - | - | - |
* Rain latest hour (hover to see other rain measurements)
** Current wind speed in m/s (hover to see current wind gust speed)